Airfield :
LOGIN :

Register | Disclaimer

   EN    FR    IT 

 










Legend :    VFR   Marginal VFR   IFR   Intensive IFR   Very Intensive IFR
Visi :
Ceiling :
>= 8 km
>= 3000ft
5 to 8 km
1000 to 3000 ft
1500m to 5 km
500 to 1000 ft
800 to 1500m
200 to 500 ft
< 800m
< 200 ft
Symbols :   Thunderstorms  Fog  Heavy snow  Heavy precipitations  Wind > 20 kt
SIGMETs :     Misc.  Thunderstorms  Icing  Turbulence  Mountain Waves  Volcanic Ashes







- Airport Elevation : 137 ft


LIPS - Istrana AFB Treviso

CURRENT METAR :
  • 270055Z 12007KT CAVOK 08/03 Q1024 RMK SKC VIS MIN 9999 WIND THR26 09006KT WIND THR08 12005KT BLU

EXPIRED METARs :
  • 262355Z 13003KT CAVOK 07/04 Q1024 RMK SKC VIS MIN 9999 WIND THR26 11002KT WIND THR08 12003KT BLU
  • 262255Z 00000KT CAVOK 07/05 Q1024 RMK SKC VIS MIN 9999 WIND THR26 00000KT WIND THR08 00000KT BLU

TAF TAF LIPS
Valid from the 27 at 00:00 until the 27 at 09:00 UTC


262300Z 2700/2709 VRB05KT CAVOK
No reported NOTAMs for that airfield.
4 SIGMETs reported for the Milano FIR (LIMM) :
 
Severe turbulence
LIMM SIGMET 2 VALID 262100/270100 LIIP
LIMM MILANO FIR SEV TURB FCST WI N4425 E00912 - N4445 E01018 - N4340 E01214 - N4339 E01021 - N4425 E00912 BLW FL070 STNR WKN=
Severe turbulence
LIMM SIGMET 15 VALID 262100/270100 LIIP
LIMM MILANO FIR SEV TURB FCST WI N4425 E00912 - N4445 E01018 - N4340 E01214 - N4339 E01021 - N4425 E00912 BLW FL070 STNR NC=
Severe turbulence
LIMM SIGMET 14 VALID 262100/270100 LIIP
LIMM MILANO FIR SEV TURB FCST S OF LINE N4504 E00620 - N4640 E01304 FL180/360 STNR NC=
Severe turbulence
LIMM SIGMET 1 VALID 270100/270500 LIIP
LIMM MILANO FIR SEV TURB FCST S OF LINE N4430 E00633 - N4553 E01353 FL220/360 STNR WKN=



MET'MAP, your aeronautical weather chart ! - Copyright ORBIFLY December 2007 - Disclaimer

ORBIFLY MET'MAP TEAM :

Programming & Development : Alexandra Zaïnal
Concept & Development : Baudouin d'Aumeries
Co-Development & Prog : Marc-Olivier Méhu
Technical & hardware support : Manuel Goepfert

Contact : metmap@orbifly.com




SOURCES & CREDITS :

   NOAA